createdAt,value
2022-09-28T00:01:36.442Z,70.97
2022-09-28T00:06:57.136Z,70.81
2022-09-28T00:12:18.418Z,71.08
2022-09-28T00:17:38.929Z,71.07
2022-09-28T00:22:59.382Z,71.25
2022-09-28T00:28:20.113Z,71.36
2022-09-28T00:33:40.747Z,71.29
2022-09-28T00:39:08.716Z,71.66
2022-09-28T00:44:38.190Z,71.49
2022-09-28T00:50:05.703Z,71.67
2022-09-28T00:55:40.543Z,71.74
2022-09-28T01:01:01.125Z,71.44
2022-09-28T01:06:24.493Z,71.32
2022-09-28T01:11:45.182Z,71.51
2022-09-28T01:17:25.750Z,71.78
2022-09-28T01:23:15.063Z,71.90
2022-09-28T01:28:36.204Z,71.85
2022-09-28T01:34:02.292Z,71.90
2022-09-28T01:39:32.858Z,72.05
2022-09-28T01:45:00.223Z,71.97
2022-09-28T01:50:25.402Z,71.93
2022-09-28T01:55:51.399Z,72.08
2022-09-28T02:01:28.790Z,72.25
2022-09-28T02:06:54.727Z,72.31
2022-09-28T02:12:31.662Z,72.62
2022-09-28T02:17:53.236Z,72.58
2022-09-28T02:23:15.321Z,72.86
2022-09-28T02:28:36.412Z,72.73
2022-09-28T02:33:58.034Z,72.82
2022-09-28T02:39:19.388Z,72.49
2022-09-28T02:45:05.761Z,72.79
2022-09-28T02:50:57.614Z,73.19
2022-09-28T02:56:56.068Z,73.33
2022-09-28T03:02:23.910Z,73.00
2022-09-28T03:07:44.683Z,72.96
2022-09-28T03:13:06.327Z,72.81
2022-09-28T03:18:27.953Z,72.49
2022-09-28T03:23:48.641Z,72.71
2022-09-28T03:29:10.396Z,72.53
2022-09-28T03:34:32.049Z,72.52
2022-09-28T03:39:53.726Z,72.65
2022-09-28T03:45:14.583Z,72.56
2022-09-28T03:50:35.253Z,72.53
2022-09-28T03:55:56.391Z,72.42
2022-09-28T04:01:18.611Z,72.30
2022-09-28T04:06:41.094Z,72.29
2022-09-28T04:12:04.364Z,72.32
2022-09-28T04:17:26.840Z,72.31
2022-09-28T04:22:48.355Z,72.41
2022-09-28T04:28:28.000Z,72.71
2022-09-28T04:33:48.577Z,72.86
2022-09-28T04:39:09.254Z,73.21
2022-09-28T04:44:30.014Z,73.50
2022-09-28T04:49:54.273Z,73.54
2022-09-28T04:55:21.544Z,73.40
2022-09-28T05:00:42.549Z,73.68
2022-09-28T05:06:15.589Z,73.86
2022-09-28T05:11:41.260Z,73.86
2022-09-28T05:17:09.812Z,73.92
2022-09-28T05:22:49.531Z,73.84
2022-09-28T05:28:11.820Z,73.70
2022-09-28T05:33:55.847Z,73.70
2022-09-28T05:39:17.313Z,73.76
2022-09-28T05:44:38.888Z,73.56
2022-09-28T05:49:59.582Z,73.19
2022-09-28T05:55:20.445Z,72.74
2022-09-28T06:00:41.158Z,72.72
2022-09-28T06:06:02.612Z,72.63
2022-09-28T06:11:26.313Z,72.25
2022-09-28T06:16:47.751Z,72.23
2022-09-28T06:22:08.968Z,72.14
2022-09-28T06:27:42.522Z,72.02
2022-09-28T06:33:05.854Z,72.56
2022-09-28T06:38:26.939Z,72.61
2022-09-28T06:43:48.627Z,72.58
2022-09-28T06:49:29.147Z,72.24
2022-09-28T06:55:09.937Z,72.65
2022-09-28T07:00:39.228Z,72.61
2022-09-28T07:05:59.991Z,72.65
2022-09-28T07:11:39.636Z,71.82
2022-09-28T07:17:18.894Z,71.29
2022-09-28T07:22:43.375Z,71.35
2022-09-28T07:28:09.418Z,71.05
2022-09-28T07:33:39.218Z,70.86
2022-09-28T07:39:15.047Z,70.66
2022-09-28T07:44:38.859Z,70.75
2022-09-28T07:49:59.495Z,70.59
2022-09-28T07:56:02.078Z,70.11
2022-09-28T08:01:30.854Z,69.60
2022-09-28T08:06:53.310Z,69.14
2022-09-28T08:12:14.445Z,69.16
2022-09-28T08:17:52.433Z,69.00
2022-09-28T08:23:14.626Z,68.92
2022-09-28T08:28:35.682Z,68.75
2022-09-28T08:34:13.644Z,68.02
2022-09-28T08:39:51.635Z,67.30
2022-09-28T08:45:33.701Z,66.91
2022-09-28T08:51:10.917Z,64.81
2022-09-28T08:56:44.602Z,65.46
2022-09-28T09:02:27.147Z,67.22
2022-09-28T09:08:08.481Z,68.00
2022-09-28T09:13:53.026Z,67.41
2022-09-28T09:19:35.548Z,66.96
2022-09-28T09:25:19.207Z,67.13
2022-09-28T09:30:55.589Z,65.93
2022-09-28T09:36:47.861Z,64.01
2022-09-28T09:42:56.369Z,62.35
2022-09-28T09:48:45.667Z,60.46
2022-09-28T09:54:16.625Z,59.93
2022-09-28T09:59:41.516Z,59.92
2022-09-28T10:05:13.496Z,57.73
2022-09-28T10:10:56.456Z,57.32
2022-09-28T10:16:20.964Z,55.59
2022-09-28T10:21:51.771Z,46.29
2022-09-28T10:27:23.884Z,31.43
2022-09-28T10:32:49.479Z,25.36
2022-09-28T10:38:17.144Z,23.27
2022-09-28T10:44:08.757Z,21.46
2022-09-28T10:49:46.774Z,22.10
2022-09-28T10:55:20.850Z,20.09
2022-09-28T11:00:43.015Z,18.78
2022-09-28T11:06:11.843Z,20.36
2022-09-28T11:11:41.592Z,29.29
2022-09-28T11:17:27.251Z,29.48
2022-09-28T11:22:51.387Z,30.30
2022-09-28T11:28:27.774Z,30.55
2022-09-28T11:33:48.296Z,27.39
2022-09-28T11:39:58.993Z,25.14
2022-09-28T11:45:39.534Z,24.01
2022-09-28T11:51:06.216Z,22.78
2022-09-28T11:56:41.903Z,21.48
2022-09-28T12:02:16.692Z,22.23
2022-09-28T12:07:50.064Z,22.32
2022-09-28T12:13:35.386Z,18.75
2022-09-28T12:24:33.335Z,15.54
2022-09-28T12:30:00.680Z,16.95
2022-09-28T12:35:49.126Z,17.04
2022-09-28T12:41:19.759Z,17.88
2022-09-28T12:47:13.860Z,19.34
2022-09-28T12:52:43.266Z,21.55
2022-09-28T12:58:15.875Z,20.62
2022-09-28T13:03:45.816Z,23.04
2022-09-28T13:09:22.564Z,24.05
2022-09-28T13:15:04.732Z,19.59
2022-09-28T13:20:36.869Z,17.22
2022-09-28T13:26:14.380Z,21.61
2022-09-28T13:31:40.310Z,24.20
2022-09-28T13:37:16.805Z,25.88
2022-09-28T13:42:47.293Z,26.86
2022-09-28T13:48:15.476Z,27.96
2022-09-28T13:53:41.540Z,27.69
2022-09-28T13:59:19.263Z,24.94
2022-09-28T14:05:06.765Z,25.26
2022-09-28T14:10:51.831Z,26.20
2022-09-28T14:16:18.321Z,26.93
2022-09-28T14:21:54.925Z,27.94
2022-09-28T14:27:37.408Z,30.36
2022-09-28T14:32:59.824Z,31.78
2022-09-28T14:38:47.668Z,29.66
2022-09-28T14:44:12.957Z,27.73
2022-09-28T14:49:43.757Z,29.56
2022-09-28T14:55:12.619Z,30.30
2022-09-28T15:00:34.321Z,29.59
2022-09-28T15:05:55.312Z,33.02
2022-09-28T15:11:19.921Z,33.88
2022-09-28T15:16:40.222Z,34.23
2022-09-28T15:22:00.977Z,35.19
2022-09-28T15:27:23.169Z,36.63
2022-09-28T15:32:43.916Z,36.68
2022-09-28T15:38:04.695Z,37.48
2022-09-28T15:43:29.046Z,38.68
2022-09-28T15:48:59.625Z,40.31
2022-09-28T15:54:25.315Z,40.57
2022-09-28T15:59:56.822Z,40.78
2022-09-28T16:05:35.702Z,40.96
2022-09-28T16:11:17.584Z,40.91
2022-09-28T16:16:46.976Z,41.31
2022-09-28T16:22:17.011Z,42.30
2022-09-28T16:27:42.693Z,41.83
2022-09-28T16:33:25.634Z,41.98
2022-09-28T16:38:47.539Z,42.23
2022-09-28T16:44:18.100Z,42.80
2022-09-28T16:49:39.953Z,43.52
2022-09-28T16:55:38.902Z,44.47
2022-09-28T17:00:56.312Z,44.96
2022-09-28T17:06:19.116Z,45.78
2022-09-28T17:11:39.811Z,46.01
2022-09-28T17:17:09.092Z,46.58
2022-09-28T17:22:31.675Z,47.34
2022-09-28T17:27:57.385Z,47.70
2022-09-28T17:33:18.207Z,47.86
2022-09-28T17:38:38.673Z,48.13
2022-09-28T17:44:00.675Z,48.35
2022-09-28T17:49:21.486Z,48.56
2022-09-28T17:54:42.202Z,48.52
2022-09-28T18:00:04.067Z,48.42
2022-09-28T18:05:27.691Z,48.64
2022-09-28T18:10:50.081Z,48.87
2022-09-28T18:16:11.809Z,49.03
2022-09-28T18:21:32.870Z,49.41
2022-09-28T18:26:53.587Z,49.65
2022-09-28T18:32:14.375Z,50.00
2022-09-28T18:37:36.894Z,49.82
2022-09-28T18:42:57.566Z,50.03
2022-09-28T18:48:18.369Z,50.10
2022-09-28T18:53:40.103Z,50.15
2022-09-28T18:59:01.643Z,50.24
2022-09-28T19:04:22.215Z,50.26
2022-09-28T19:09:44.100Z,50.47
2022-09-28T19:15:05.279Z,50.45
2022-09-28T19:20:25.848Z,50.42
2022-09-28T19:25:46.594Z,50.38
2022-09-28T19:31:10.970Z,50.54
2022-09-28T19:36:32.060Z,50.75
2022-09-28T19:41:52.969Z,51.00
2022-09-28T19:47:13.472Z,51.50
2022-09-28T19:52:34.389Z,51.94
2022-09-28T19:57:56.289Z,52.60
2022-09-28T20:03:18.509Z,52.84
2022-09-28T20:08:41.383Z,53.24
2022-09-28T20:14:09.727Z,53.65
2022-09-28T20:19:30.262Z,54.49
2022-09-28T20:24:51.004Z,55.16
2022-09-28T20:30:12.847Z,55.39
2022-09-28T20:35:34.242Z,55.43
2022-09-28T20:40:59.612Z,55.92
2022-09-28T20:46:22.060Z,56.02
2022-09-28T20:51:42.866Z,56.01
2022-09-28T20:57:17.202Z,56.37
2022-09-28T21:02:38.051Z,56.65
2022-09-28T21:07:58.575Z,56.82
2022-09-28T21:13:23.297Z,57.14
2022-09-28T21:18:44.526Z,57.50
2022-09-28T21:24:05.096Z,57.49
2022-09-28T21:29:26.248Z,57.67
2022-09-28T21:34:46.501Z,58.14
2022-09-28T21:40:09.749Z,58.52
2022-09-28T21:45:32.168Z,58.71
2022-09-28T21:50:56.515Z,58.86
2022-09-28T21:56:17.546Z,59.37
2022-09-28T22:01:38.295Z,59.55
2022-09-28T22:06:58.959Z,59.63
2022-09-28T22:12:19.764Z,59.98
2022-09-28T22:17:40.141Z,60.31
2022-09-28T22:23:00.473Z,60.41
2022-09-28T22:28:22.292Z,60.57
2022-09-28T22:33:43.727Z,60.69
2022-09-28T22:39:04.508Z,60.83
2022-09-28T22:44:25.653Z,61.27
2022-09-28T22:49:46.240Z,61.45
2022-09-28T22:55:07.373Z,61.91
2022-09-28T23:00:28.142Z,61.93
2022-09-28T23:05:56.409Z,62.23
2022-09-28T23:11:17.631Z,62.03
2022-09-28T23:16:38.207Z,62.28
2022-09-28T23:21:59.258Z,62.61
2022-09-28T23:27:20.194Z,62.55
2022-09-28T23:32:40.724Z,62.92
2022-09-28T23:38:01.159Z,62.93
2022-09-28T23:43:21.483Z,62.79
2022-09-28T23:48:42.231Z,62.67
2022-09-28T23:54:05.295Z,62.64
2022-09-28T23:59:26.103Z,62.67
